createdAt,value
2022-08-04T00:08:28.381Z,99987.59
2022-08-04T00:18:29.724Z,99984.56
2022-08-04T00:28:31.094Z,99991.69
2022-08-04T00:38:32.429Z,99997.13
2022-08-04T00:48:33.702Z,99994.34
2022-08-04T00:58:35.045Z,100000.28
2022-08-04T01:08:36.410Z,100002.38
2022-08-04T01:18:37.749Z,100001.31
2022-08-04T01:28:42.916Z,100000.53
2022-08-04T01:38:44.356Z,99994.69
2022-08-04T01:48:45.716Z,100001.69
2022-08-04T01:58:47.525Z,99988.22
2022-08-04T02:08:48.837Z,99995.91
2022-08-04T02:18:50.243Z,99989.41
2022-08-04T02:28:51.580Z,99990.47
2022-08-04T02:38:52.936Z,99985.53
2022-08-04T02:48:54.528Z,99986.50
2022-08-04T02:58:55.844Z,99984.50
2022-08-04T03:08:57.177Z,99981.41
2022-08-04T03:18:58.515Z,99988.53
2022-08-04T03:29:00.682Z,99992.34
2022-08-04T03:39:02.136Z,99998.25
2022-08-04T03:49:03.540Z,100002.63
2022-08-04T03:59:04.888Z,100008.53
2022-08-04T04:09:06.219Z,100008.91
2022-08-04T04:19:14.876Z,100016.31
2022-08-04T04:29:16.228Z,100018.59
2022-08-04T04:39:17.615Z,100030.75
2022-08-04T04:49:18.957Z,100030.97
2022-08-04T04:59:20.277Z,100037.13
2022-08-04T05:09:21.618Z,100035.34
2022-08-04T05:19:22.954Z,100035.91
2022-08-04T05:29:24.307Z,100047.47
2022-08-04T05:39:34.515Z,100038.09
2022-08-04T05:49:36.052Z,100047.91
2022-08-04T05:59:37.431Z,100043.94
2022-08-04T06:09:38.751Z,100053.06
2022-08-04T06:19:59.346Z,100044.41
2022-08-04T06:30:01.605Z,100053.56
2022-08-04T06:40:04.168Z,100051.81
2022-08-04T06:51:26.238Z,100065.13
2022-08-04T07:00:45.744Z,100059.72
2022-08-04T07:10:47.132Z,100056.66
2022-08-04T07:20:48.754Z,100055.91
2022-08-04T07:30:50.083Z,100058.88
2022-08-04T07:40:51.398Z,100052.59
2022-08-04T07:50:52.741Z,100049.69
2022-08-04T08:00:54.806Z,100060.81
2022-08-04T08:10:56.159Z,100051.66
2022-08-04T08:20:57.504Z,100046.75
2022-08-04T08:30:59.411Z,100040.63
2022-08-04T08:41:01.438Z,100033.53
2022-08-04T08:51:02.802Z,100042.06
2022-08-04T09:01:04.174Z,100039.53
2022-08-04T09:11:05.571Z,100036.94
2022-08-04T09:21:06.835Z,100030.81
2022-08-04T09:31:08.178Z,100032.97
2022-08-04T09:41:20.652Z,100040.91
2022-08-04T09:51:57.975Z,100024.41
2022-08-04T10:02:00.038Z,100023.31
2022-08-04T10:12:01.742Z,100008.63
2022-08-04T10:22:28.495Z,99995.16
2022-08-04T10:32:24.390Z,99988.69
2022-08-04T10:42:25.739Z,99986.44
2022-08-04T10:52:27.073Z,99972.84
2022-08-04T11:02:28.405Z,99963.44
2022-08-04T11:12:29.775Z,99957.66
2022-08-04T11:22:31.011Z,99950.94
2022-08-04T11:32:32.347Z,99954.63
2022-08-04T11:42:33.691Z,99948.91
2022-08-04T11:52:35.127Z,99943.84
2022-08-04T12:02:36.468Z,99935.31
2022-08-04T12:12:37.798Z,99920.25
2022-08-04T12:22:41.755Z,99907.88
2022-08-04T12:32:48.227Z,99895.63
2022-08-04T12:42:56.284Z,99885.31
2022-08-04T12:53:03.420Z,99889.44
2022-08-04T13:03:05.772Z,99881.34
2022-08-04T13:13:11.217Z,99869.31
2022-08-04T13:23:12.633Z,99862.78
2022-08-04T13:33:14.455Z,99854.97
2022-08-04T13:43:51.596Z,99842.00
2022-08-04T13:53:37.103Z,99829.31
2022-08-04T14:03:54.254Z,99813.72
2022-08-04T14:13:56.364Z,99806.94
2022-08-04T14:23:57.741Z,99799.13
2022-08-04T14:34:03.003Z,99785.47
2022-08-04T14:44:07.116Z,99782.63
2022-08-04T14:54:12.106Z,99768.94
2022-08-04T15:04:17.177Z,99766.09
2022-08-04T15:14:36.274Z,99768.16
2022-08-04T15:24:39.294Z,99747.38
2022-08-04T15:34:40.656Z,99746.75
2022-08-04T15:44:41.917Z,99752.25
2022-08-04T15:54:52.788Z,99741.53
2022-08-04T16:04:54.432Z,99730.44
2022-08-04T16:14:58.939Z,99722.03
2022-08-04T16:25:00.281Z,99719.09
2022-08-04T16:35:04.065Z,99707.81
2022-08-04T16:45:05.418Z,99715.34
2022-08-04T16:55:07.223Z,99712.38
2022-08-04T17:05:08.528Z,99713.50
2022-08-04T17:15:09.869Z,99707.03
2022-08-04T17:25:11.480Z,99710.72
2022-08-04T17:35:12.796Z,99699.28
2022-08-04T17:55:37.233Z,99699.59
2022-08-04T18:06:02.107Z,99708.78
2022-08-04T18:15:59.788Z,99722.66
2022-08-04T18:26:02.489Z,99723.50
2022-08-04T18:36:32.563Z,99724.19
2022-08-04T18:46:26.976Z,99723.59
2022-08-04T18:56:29.792Z,99728.09
2022-08-04T19:06:33.577Z,99733.41
2022-08-04T19:16:34.984Z,99755.84
2022-08-04T19:26:36.548Z,99761.66
2022-08-04T19:36:37.939Z,99764.16
2022-08-04T19:46:39.321Z,99773.50
2022-08-04T19:56:41.497Z,99777.94
2022-08-04T20:06:42.943Z,99780.44
2022-08-04T20:16:45.119Z,99786.38
2022-08-04T20:26:48.720Z,99795.72
2022-08-04T20:36:51.062Z,99812.28
2022-08-04T20:46:52.457Z,99804.69
2022-08-04T20:56:54.108Z,99797.63
2022-08-04T21:06:55.557Z,99783.22
2022-08-04T21:16:58.670Z,99800.28
2022-08-04T21:27:01.668Z,99805.41
2022-08-04T21:37:03.005Z,99802.91
2022-08-04T21:47:04.347Z,99807.19
2022-08-04T21:57:15.366Z,99803.94
2022-08-04T22:07:16.940Z,99827.44
2022-08-04T22:17:18.792Z,99841.50
2022-08-04T22:27:38.966Z,99829.25
2022-08-04T22:37:45.050Z,99824.47
2022-08-04T22:48:01.665Z,99830.28
2022-08-04T22:58:05.361Z,99836.19
2022-08-04T23:08:10.872Z,99837.63
2022-08-04T23:18:13.614Z,99847.78
2022-08-04T23:28:16.255Z,99859.59
2022-08-04T23:38:30.402Z,99886.94
2022-08-04T23:48:33.242Z,99893.88
2022-08-04T23:58:36.590Z,99894.47
